createdAt,value
2023-04-02T00:00:18.521Z,101440
2023-04-02T00:05:18.566Z,101450
2023-04-02T00:10:18.529Z,101460
2023-04-02T00:15:18.535Z,101470
2023-04-02T00:20:18.536Z,101470
2023-04-02T00:25:18.551Z,101480
2023-04-02T00:30:18.557Z,101490
2023-04-02T00:35:18.585Z,101500
2023-04-02T00:40:18.547Z,101510
2023-04-02T00:45:18.552Z,101520
2023-04-02T00:50:18.574Z,101530
2023-04-02T00:55:18.569Z,101550
2023-04-02T01:00:18.564Z,101540
2023-04-02T01:05:18.615Z,101550
2023-04-02T01:10:18.560Z,101560
2023-04-02T01:15:18.592Z,101570
2023-04-02T01:20:18.572Z,101570
2023-04-02T01:25:18.572Z,101580
2023-04-02T01:30:18.589Z,101600
2023-04-02T01:35:18.608Z,101610
2023-04-02T01:40:18.571Z,101610
2023-04-02T01:45:18.589Z,101620
2023-04-02T01:50:18.584Z,101620
2023-04-02T01:55:18.595Z,101640
2023-04-02T02:00:18.590Z,101640
2023-04-02T02:05:18.623Z,101650
2023-04-02T02:10:18.593Z,101660
2023-04-02T02:15:18.601Z,101670
2023-04-02T02:20:18.614Z,101680
2023-04-02T02:25:18.605Z,101690
2023-04-02T02:30:18.618Z,101700
2023-04-02T02:35:18.668Z,101710
2023-04-02T02:40:18.617Z,101720
2023-04-02T02:45:18.615Z,101720
2023-04-02T02:50:18.615Z,101730
2023-04-02T02:55:18.639Z,101740
2023-04-02T03:00:18.705Z,101750
2023-04-02T03:05:18.659Z,101750
2023-04-02T03:10:18.637Z,101760
2023-04-02T03:15:18.630Z,101770
2023-04-02T03:20:18.657Z,101790
2023-04-02T03:25:18.636Z,101800
2023-04-02T03:30:18.639Z,101820
2023-04-02T03:35:18.680Z,101820
2023-04-02T03:40:18.656Z,101840
2023-04-02T03:45:18.659Z,101850
2023-04-02T03:50:18.649Z,101860
2023-04-02T03:55:18.660Z,101870
2023-04-02T04:00:18.688Z,101880
2023-04-02T04:05:18.696Z,101890
2023-04-02T04:10:18.675Z,101910
2023-04-02T04:15:18.669Z,101920
2023-04-02T04:20:18.669Z,101930
2023-04-02T04:25:18.669Z,101930
2023-04-02T04:30:18.684Z,101960
2023-04-02T04:35:18.712Z,101960
2023-04-02T04:40:18.677Z,101960
2023-04-02T04:45:18.700Z,101970
2023-04-02T04:50:18.686Z,101980
2023-04-02T04:55:18.686Z,102000
2023-04-02T05:00:18.693Z,102010
2023-04-02T05:05:18.736Z,102020
2023-04-02T05:10:18.704Z,102040
2023-04-02T05:15:18.712Z,102060
2023-04-02T05:20:18.709Z,102070
2023-04-02T05:25:18.718Z,102090
2023-04-02T05:30:20.134Z,102100
2023-04-02T05:35:18.743Z,102110
2023-04-02T05:40:18.714Z,102120
2023-04-02T05:45:18.725Z,102130
2023-04-02T05:50:18.717Z,102150
2023-04-02T05:55:18.733Z,102160
2023-04-02T06:00:18.725Z,102180
2023-04-02T06:05:18.782Z,102180
2023-04-02T06:10:18.738Z,102190
2023-04-02T06:15:18.744Z,102200
2023-04-02T06:20:18.729Z,102220
2023-04-02T06:25:18.742Z,102230
2023-04-02T06:30:18.742Z,102230
2023-04-02T06:35:18.785Z,102240
2023-04-02T06:40:18.757Z,102250
2023-04-02T06:45:18.760Z,102260
2023-04-02T06:50:18.759Z,102270
2023-04-02T06:55:18.778Z,102280
2023-04-02T07:00:18.779Z,102290
2023-04-02T07:05:18.806Z,102310
2023-04-02T07:10:18.771Z,102310
2023-04-02T07:15:18.770Z,102330
2023-04-02T07:20:18.795Z,102340
2023-04-02T07:25:18.770Z,102350
2023-04-02T07:30:18.761Z,102360
2023-04-02T07:35:18.812Z,102370
2023-04-02T07:40:18.777Z,102380
2023-04-02T07:45:18.789Z,102390
2023-04-02T07:50:18.783Z,102400
2023-04-02T07:55:18.816Z,102410
2023-04-02T08:00:18.786Z,102410
2023-04-02T08:05:18.914Z,102420
2023-04-02T08:10:18.795Z,102440
2023-04-02T08:15:18.792Z,102440
2023-04-02T08:20:18.821Z,102440
2023-04-02T08:25:18.814Z,102440
2023-04-02T08:30:18.802Z,102450
2023-04-02T08:35:18.866Z,102460
2023-04-02T08:40:18.862Z,102470
2023-04-02T08:45:24.844Z,102480
2023-04-02T08:50:18.854Z,102490
2023-04-02T08:55:18.831Z,102490
2023-04-02T09:00:18.826Z,102500
2023-04-02T09:05:18.854Z,102500
2023-04-02T09:10:18.845Z,102530
2023-04-02T09:15:18.842Z,102540
2023-04-02T09:20:18.832Z,102540
2023-04-02T09:25:18.830Z,102550
2023-04-02T09:30:18.840Z,102560
2023-04-02T09:35:26.002Z,102570
2023-04-02T09:40:18.843Z,102570
2023-04-02T09:45:18.858Z,102570
2023-04-02T09:50:18.860Z,102570
2023-04-02T09:55:18.848Z,102570
2023-04-02T10:00:30.492Z,102580
2023-04-02T10:05:39.495Z,102590
2023-04-02T10:10:18.868Z,102600
2023-04-02T10:15:18.861Z,102600
2023-04-02T10:20:18.873Z,102600
2023-04-02T10:25:18.869Z,102610
2023-04-02T10:30:18.879Z,102610
2023-04-02T10:35:18.910Z,102620
2023-04-02T10:40:18.890Z,102630
2023-04-02T10:45:18.882Z,102640
2023-04-02T10:50:18.890Z,102640
2023-04-02T10:55:18.885Z,102650
2023-04-02T11:00:18.893Z,102640
2023-04-02T11:05:18.969Z,102650
2023-04-02T11:10:18.902Z,102650
2023-04-02T11:15:18.895Z,102660
2023-04-02T11:20:19.266Z,102670
2023-04-02T11:25:18.905Z,102670
2023-04-02T11:30:18.922Z,102680
2023-04-02T11:35:19.024Z,102680
2023-04-02T11:40:18.943Z,102680
2023-04-02T11:45:20.651Z,102680
2023-04-02T11:50:18.923Z,102690
2023-04-02T11:55:18.938Z,102690
2023-04-02T12:00:18.924Z,102690
2023-04-02T12:05:19.012Z,102700
2023-04-02T12:10:18.924Z,102700
2023-04-02T12:15:18.926Z,102700
2023-04-02T12:20:18.953Z,102720
2023-04-02T12:25:18.940Z,102720
2023-04-02T12:30:18.948Z,102720
2023-04-02T12:35:18.978Z,102720
2023-04-02T12:40:18.961Z,102730
2023-04-02T12:45:18.949Z,102730
2023-04-02T12:50:18.945Z,102740
2023-04-02T12:55:18.953Z,102740
2023-04-02T13:00:18.950Z,102740
2023-04-02T13:05:19.023Z,102750
2023-04-02T13:10:18.967Z,102750
2023-04-02T13:15:18.974Z,102740
2023-04-02T13:20:18.972Z,102740
2023-04-02T13:25:18.971Z,102750
2023-04-02T13:30:18.980Z,102750
2023-04-02T13:35:19.009Z,102750
2023-04-02T13:40:18.984Z,102750
2023-04-02T13:45:18.984Z,102740
2023-04-02T13:50:18.991Z,102750
2023-04-02T13:55:18.989Z,102750
2023-04-02T14:00:18.994Z,102750
2023-04-02T14:05:19.030Z,102750
2023-04-02T14:10:19.003Z,102750
2023-04-02T14:15:19.019Z,102750
2023-04-02T14:20:19.003Z,102760
2023-04-02T14:25:19.007Z,102770
2023-04-02T14:30:19.014Z,102770
2023-04-02T14:35:19.045Z,102770
2023-04-02T14:40:19.011Z,102780
2023-04-02T14:45:19.035Z,102790
2023-04-02T14:50:19.016Z,102790
2023-04-02T14:55:19.026Z,102790
2023-04-02T15:00:19.036Z,102790
2023-04-02T15:05:19.062Z,102790
2023-04-02T15:10:19.034Z,102780
2023-04-02T15:15:24.405Z,102800
2023-04-02T15:20:19.056Z,102800
2023-04-02T15:25:19.051Z,102800
2023-04-02T15:30:19.059Z,102800
2023-04-02T15:35:20.297Z,102790
2023-04-02T15:40:19.049Z,102800
2023-04-02T15:45:19.053Z,102800
2023-04-02T15:50:19.055Z,102810
2023-04-02T15:55:19.062Z,102810
2023-04-02T16:00:19.067Z,102820
2023-04-02T16:05:19.087Z,102820
2023-04-02T16:10:27.387Z,102830
2023-04-02T16:15:19.075Z,102840
2023-04-02T16:21:54.264Z,102840
2023-04-02T16:25:19.078Z,102850
2023-04-02T16:30:19.084Z,102860
2023-04-02T16:35:40.950Z,102860
2023-04-02T16:40:19.115Z,102860
2023-04-02T16:45:19.433Z,102850
2023-04-02T16:50:19.117Z,102860
2023-04-02T16:55:19.093Z,102870
2023-04-02T17:00:19.105Z,102880
2023-04-02T17:05:19.118Z,102900
2023-04-02T17:10:19.133Z,102910
2023-04-02T17:15:27.814Z,102910
2023-04-02T17:20:19.103Z,102920
2023-04-02T17:25:19.128Z,102930
2023-04-02T17:30:19.133Z,102940
2023-04-02T17:35:19.136Z,102940
2023-04-02T17:40:19.209Z,102940
2023-04-02T17:45:19.116Z,102950
2023-04-02T17:50:19.129Z,102960
2023-04-02T17:55:19.134Z,102960
2023-04-02T18:00:19.136Z,102970
2023-04-02T18:05:19.144Z,102970
2023-04-02T18:10:19.169Z,102990
2023-04-02T18:15:19.145Z,103000
2023-04-02T18:20:19.164Z,103010
2023-04-02T18:25:19.149Z,103020
2023-04-02T18:35:19.165Z,103030
2023-04-02T18:40:19.185Z,103040
2023-04-02T18:45:19.161Z,103040
2023-04-02T18:50:19.156Z,103040
2023-04-02T18:55:19.183Z,103050
2023-04-02T19:00:19.187Z,103060
2023-04-02T19:05:20.338Z,103070
2023-04-02T19:10:19.203Z,103080
2023-04-02T19:15:19.179Z,103080
2023-04-02T19:20:19.193Z,103090
2023-04-02T19:25:19.183Z,103100
2023-04-02T19:30:19.194Z,103110
2023-04-02T19:35:19.193Z,103120
2023-04-02T19:40:19.342Z,103110
2023-04-02T19:43:16.593Z,103130
2023-04-02T19:45:19.198Z,103130
2023-04-02T19:50:19.207Z,103130
2023-04-02T19:55:19.216Z,103130
2023-04-02T20:00:19.193Z,103140
2023-04-02T20:05:19.218Z,103140
2023-04-02T20:15:19.207Z,103160
2023-04-02T20:20:19.208Z,103160
2023-04-02T20:25:19.223Z,103170
2023-04-02T20:30:19.216Z,103180
2023-04-02T20:35:19.221Z,103180
2023-04-02T20:40:19.372Z,103190
2023-04-02T20:45:19.252Z,103190
2023-04-02T20:50:19.241Z,103200
2023-04-02T20:55:19.229Z,103210
2023-04-02T21:00:19.246Z,103210
2023-04-02T21:05:19.244Z,103220
2023-04-02T21:10:19.275Z,103220
2023-04-02T21:15:19.254Z,103230
2023-04-02T21:20:19.269Z,103240
2023-04-02T21:25:19.251Z,103250
2023-04-02T21:30:19.248Z,103250
2023-04-02T21:35:19.261Z,103260
2023-04-02T21:40:19.358Z,103260
2023-04-02T21:45:19.252Z,103260
2023-04-02T21:50:19.260Z,103270
2023-04-02T21:55:19.258Z,103280
2023-04-02T22:00:19.287Z,103280
2023-04-02T22:05:19.276Z,103280
2023-04-02T22:10:19.298Z,103290
2023-04-02T22:15:19.284Z,103290
2023-04-02T22:20:19.276Z,103290
2023-04-02T22:25:19.281Z,103290
2023-04-02T22:30:19.286Z,103290
2023-04-02T22:35:19.281Z,103300
2023-04-02T22:40:19.465Z,103300
2023-04-02T22:45:19.285Z,103300
2023-04-02T22:50:19.295Z,103300
2023-04-02T22:55:19.307Z,103310
2023-04-02T23:00:19.299Z,103310
2023-04-02T23:05:19.324Z,103310
2023-04-02T23:10:19.346Z,103310
2023-04-02T23:11:11.474Z,103310
2023-04-02T23:15:19.303Z,103310
2023-04-02T23:20:19.319Z,103320
2023-04-02T23:25:19.312Z,103320
2023-04-02T23:30:19.310Z,103320
2023-04-02T23:35:19.323Z,103330
2023-04-02T23:40:19.461Z,103330
2023-04-02T23:45:19.322Z,103340
2023-04-02T23:50:19.326Z,103330
2023-04-02T23:55:19.325Z,103330
